createdAt,value
2022-12-18T00:02:06.297Z,102706.66
2022-12-18T00:04:32.827Z,102707.44
2022-12-18T00:06:59.266Z,102705.16
2022-12-18T00:09:25.892Z,102699.59
2022-12-18T00:14:43.130Z,102703.28
2022-12-18T00:17:10.071Z,102698.28
2022-12-18T00:19:36.489Z,102701.97
2022-12-18T00:22:02.918Z,102695.38
2022-12-18T00:24:29.339Z,102703.13
2022-12-18T00:26:55.803Z,102703.13
2022-12-18T00:29:27.093Z,102701.19
2022-12-18T00:31:53.624Z,102707.16
2022-12-18T00:34:20.200Z,102697.00
2022-12-18T00:36:48.433Z,102698.03
2022-12-18T00:39:14.910Z,102698.03
2022-12-18T00:42:00.228Z,102701.19
2022-12-18T00:44:27.705Z,102697.25
2022-12-18T00:46:54.243Z,102685.59
2022-12-18T00:49:21.150Z,102688.50
2022-12-18T00:51:48.176Z,102678.69
2022-12-18T00:54:15.218Z,102689.72
2022-12-18T00:56:49.808Z,102688.34
2022-12-18T00:59:18.124Z,102694.25
2022-12-18T01:01:45.682Z,102698.97
2022-12-18T01:04:12.608Z,102694.19
2022-12-18T01:06:39.092Z,102706.50
2022-12-18T01:09:06.738Z,102706.50
2022-12-18T01:11:33.210Z,102713.59
2022-12-18T01:14:01.167Z,102713.84
2022-12-18T01:16:27.810Z,102703.34
2022-12-18T01:18:55.538Z,102723.44
2022-12-18T01:21:22.772Z,102718.78
2022-12-18T01:23:52.949Z,102723.50
2022-12-18T01:26:19.740Z,102711.00
2022-12-18T01:28:46.175Z,102714.94
2022-12-18T01:31:20.121Z,102708.28
2022-12-18T01:33:46.603Z,102717.66
2022-12-18T01:36:24.512Z,102721.25
2022-12-18T01:38:51.737Z,102739.00
2022-12-18T01:41:23.683Z,102742.91
2022-12-18T01:43:53.238Z,102737.81
2022-12-18T01:46:21.938Z,102732.31
2022-12-18T01:48:50.583Z,102737.19
2022-12-18T01:51:17.249Z,102731.59
2022-12-18T01:53:44.784Z,102730.97
2022-12-18T01:56:15.224Z,102731.88
2022-12-18T01:59:01.674Z,102725.28
2022-12-18T02:01:28.401Z,102727.19
2022-12-18T02:03:55.032Z,102733.94
2022-12-18T02:06:28.597Z,102726.16
2022-12-18T02:09:11.425Z,102721.91
2022-12-18T02:11:43.815Z,102719.41
2022-12-18T02:14:26.160Z,102726.63
2022-12-18T02:16:54.756Z,102718.59
2022-12-18T02:20:04.001Z,102727.66
2022-12-18T02:22:49.060Z,102730.72
2022-12-18T02:25:30.867Z,102722.22
2022-12-18T02:28:00.810Z,102721.75
2022-12-18T02:30:28.424Z,102730.88
2022-12-18T02:32:55.456Z,102732.13
2022-12-18T02:35:25.083Z,102726.56
2022-12-18T02:37:54.908Z,102719.94
2022-12-18T02:40:23.336Z,102717.91
2022-12-18T02:42:49.977Z,102710.59
2022-12-18T02:45:16.729Z,102716.72
2022-12-18T02:47:45.089Z,102710.22
2022-12-18T02:50:34.338Z,102711.91
2022-12-18T02:53:19.023Z,102719.78
2022-12-18T02:56:08.527Z,102719.31
2022-12-18T02:58:58.447Z,102713.59
2022-12-18T03:02:00.230Z,102719.69
2022-12-18T03:04:31.599Z,102716.88
2022-12-18T03:07:02.879Z,102730.38
2022-12-18T03:09:34.298Z,102734.41
2022-12-18T03:12:24.811Z,102735.91
2022-12-18T03:15:03.396Z,102725.97
2022-12-18T03:17:32.557Z,102722.28
2022-12-18T03:20:02.041Z,102731.28
2022-12-18T03:22:31.325Z,102725.66
2022-12-18T03:24:58.431Z,102730.59
2022-12-18T03:27:25.620Z,102735.47
2022-12-18T03:30:08.441Z,102725.09
2022-12-18T03:32:41.592Z,102730.97
2022-12-18T03:35:09.089Z,102729.81
2022-12-18T03:37:35.951Z,102728.47
2022-12-18T03:40:02.931Z,102726.44
2022-12-18T03:42:46.715Z,102726.75
2022-12-18T03:45:24.516Z,102721.25
2022-12-18T03:48:07.487Z,102728.19
2022-12-18T03:50:43.085Z,102739.19
2022-12-18T03:53:15.163Z,102750.22
2022-12-18T03:55:42.028Z,102745.81
2022-12-18T03:58:09.161Z,102734.97
2022-12-18T04:00:35.872Z,102735.28
2022-12-18T04:03:03.053Z,102732.91
2022-12-18T04:05:29.904Z,102724.41
2022-12-18T04:07:57.450Z,102726.63
2022-12-18T04:10:23.946Z,102721.19
2022-12-18T04:12:50.346Z,102716.25
2022-12-18T04:15:16.772Z,102707.13
2022-12-18T04:17:50.677Z,102709.50
2022-12-18T04:20:17.852Z,102702.56
2022-12-18T04:22:44.257Z,102714.75
2022-12-18T04:25:10.691Z,102703.53
2022-12-18T04:27:37.139Z,102699.97
2022-12-18T04:30:04.380Z,102702.97
2022-12-18T04:32:30.812Z,102710.75
2022-12-18T04:34:57.481Z,102719.78
2022-12-18T04:37:23.907Z,102714.50
2022-12-18T04:39:50.320Z,102713.94
2022-12-18T04:42:16.762Z,102721.41
2022-12-18T04:44:43.349Z,102715.97
2022-12-18T04:47:09.817Z,102719.56
2022-12-18T04:49:36.245Z,102730.03
2022-12-18T04:52:02.650Z,102723.97
2022-12-18T04:54:29.077Z,102716.63
2022-12-18T04:56:55.640Z,102725.19
2022-12-18T04:59:22.044Z,102727.00
2022-12-18T05:01:48.723Z,102733.66
2022-12-18T05:04:15.305Z,102721.63
2022-12-18T05:06:41.873Z,102740.09
2022-12-18T05:09:08.306Z,102729.03
2022-12-18T05:11:34.737Z,102729.25
2022-12-18T05:14:01.159Z,102726.91
2022-12-18T05:16:27.731Z,102741.91
2022-12-18T05:18:54.477Z,102741.84
2022-12-18T05:21:20.899Z,102750.59
2022-12-18T05:23:47.440Z,102755.34
2022-12-18T05:26:18.519Z,102757.41
2022-12-18T05:28:45.524Z,102754.44
2022-12-18T05:31:12.228Z,102773.38
2022-12-18T05:33:39.302Z,102765.81
2022-12-18T05:36:08.187Z,102763.53
2022-12-18T05:38:36.994Z,102771.47
2022-12-18T05:41:04.161Z,102770.88
2022-12-18T05:43:30.988Z,102766.81
2022-12-18T05:45:58.440Z,102769.66
2022-12-18T05:48:24.999Z,102767.38
2022-12-18T05:50:51.847Z,102773.09
2022-12-18T05:53:20.275Z,102763.00
2022-12-18T05:55:47.268Z,102744.28
2022-12-18T05:58:14.627Z,102749.00
2022-12-18T06:00:45.074Z,102751.84
2022-12-18T06:03:12.812Z,102757.19
2022-12-18T06:05:41.729Z,102759.84
2022-12-18T06:08:08.322Z,102753.56
2022-12-18T06:10:34.875Z,102758.75
2022-12-18T06:13:01.788Z,102762.38
2022-12-18T06:15:28.226Z,102769.91
2022-12-18T06:17:54.656Z,102770.38
2022-12-18T06:20:21.213Z,102774.75
2022-12-18T06:22:47.582Z,102770.50
2022-12-18T06:25:14.009Z,102775.69
2022-12-18T06:27:40.576Z,102772.84
2022-12-18T06:30:09.613Z,102764.84
2022-12-18T06:32:35.998Z,102772.06
2022-12-18T06:35:02.402Z,102764.94
2022-12-18T06:37:29.182Z,102770.88
2022-12-18T06:39:55.633Z,102769.28
2022-12-18T06:42:23.519Z,102772.44
2022-12-18T06:44:50.119Z,102769.50
2022-12-18T06:47:16.535Z,102771.41
2022-12-18T06:49:42.989Z,102764.66
2022-12-18T06:52:09.569Z,102781.31
2022-12-18T06:54:35.965Z,102790.66
2022-12-18T06:57:02.342Z,102787.59
2022-12-18T06:59:28.970Z,102787.28
2022-12-18T07:01:55.780Z,102792.47
2022-12-18T07:04:22.326Z,102790.91
2022-12-18T07:06:48.783Z,102788.38
2022-12-18T07:09:15.171Z,102792.78
2022-12-18T07:11:41.533Z,102797.94
2022-12-18T07:14:07.949Z,102795.03
2022-12-18T07:16:34.332Z,102804.41
2022-12-18T07:19:00.853Z,102804.16
2022-12-18T07:21:27.312Z,102798.41
2022-12-18T07:23:53.799Z,102805.41
2022-12-18T07:26:21.336Z,102811.50
2022-12-18T07:28:47.842Z,102803.50
2022-12-18T07:31:21.647Z,102803.06
2022-12-18T07:33:48.973Z,102807.81
2022-12-18T07:36:15.779Z,102818.38
2022-12-18T07:38:42.293Z,102822.31
2022-12-18T07:41:10.772Z,102825.13
2022-12-18T07:43:38.279Z,102812.97
2022-12-18T07:46:05.629Z,102813.31
2022-12-18T07:48:32.348Z,102793.47
2022-12-18T07:51:02.732Z,102799.44
2022-12-18T07:53:29.460Z,102789.06
2022-12-18T07:56:25.920Z,102796.63
2022-12-18T07:58:48.442Z,102797.38
2022-12-18T08:01:15.668Z,102799.50
2022-12-18T08:03:42.525Z,102795.63
2022-12-18T08:06:10.507Z,102794.94
2022-12-18T08:08:37.450Z,102790.63
2022-12-18T08:11:04.130Z,102778.50
2022-12-18T08:13:30.557Z,102783.56
2022-12-18T08:15:58.935Z,102785.72
2022-12-18T08:18:27.291Z,102784.16
2022-12-18T08:20:54.071Z,102783.19
2022-12-18T08:23:20.501Z,102784.41
2022-12-18T08:25:47.244Z,102791.78
2022-12-18T08:28:13.951Z,102795.56
2022-12-18T08:30:40.386Z,102797.69
2022-12-18T08:33:07.311Z,102801.22
2022-12-18T08:35:41.085Z,102798.25
2022-12-18T08:38:10.527Z,102797.03
2022-12-18T08:40:37.004Z,102799.34
2022-12-18T08:43:22.160Z,102804.19
2022-12-18T08:45:48.659Z,102800.84
2022-12-18T08:48:20.597Z,102796.53
2022-12-18T08:50:58.913Z,102793.31
2022-12-18T08:53:25.372Z,102800.88
2022-12-18T08:55:51.826Z,102780.38
2022-12-18T08:58:18.262Z,102779.97
2022-12-18T09:00:44.913Z,102776.78
2022-12-18T09:03:15.824Z,102769.56
2022-12-18T09:05:42.376Z,102776.84
2022-12-18T09:08:08.984Z,102771.66
2022-12-18T09:10:43.567Z,102769.41
2022-12-18T09:13:11.308Z,102775.25
2022-12-18T09:15:54.410Z,102790.47
2022-12-18T09:18:22.265Z,102791.56
2022-12-18T09:20:48.892Z,102789.13
2022-12-18T09:23:15.486Z,102791.22
2022-12-18T09:25:42.028Z,102809.47
2022-12-18T09:28:16.192Z,102802.81
2022-12-18T09:30:47.767Z,102801.03
2022-12-18T09:33:14.645Z,102807.09
2022-12-18T09:35:41.984Z,102814.44
2022-12-18T09:38:09.941Z,102818.88
2022-12-18T09:40:42.473Z,102819.66
2022-12-18T09:43:16.115Z,102817.03
2022-12-18T09:45:46.084Z,102821.25
2022-12-18T09:48:23.109Z,102819.44
2022-12-18T09:50:50.269Z,102813.16
2022-12-18T09:53:21.422Z,102826.00
2022-12-18T09:55:48.646Z,102836.47
2022-12-18T09:58:27.915Z,102826.56
2022-12-18T10:00:54.728Z,102838.06
2022-12-18T10:03:21.658Z,102827.09
2022-12-18T10:06:11.970Z,102821.88
2022-12-18T10:08:46.025Z,102816.38
2022-12-18T10:11:29.160Z,102824.75
2022-12-18T10:14:07.729Z,102834.97
2022-12-18T10:16:43.688Z,102829.50
2022-12-18T10:19:19.322Z,102820.34
2022-12-18T10:22:11.756Z,102805.22
2022-12-18T10:24:49.918Z,102804.97
2022-12-18T10:27:18.624Z,102806.50
2022-12-18T10:29:45.847Z,102803.63
2022-12-18T10:32:18.459Z,102799.19
2022-12-18T10:34:51.286Z,102795.28
2022-12-18T10:37:26.209Z,102794.22
2022-12-18T10:40:22.327Z,102785.34
2022-12-18T10:43:05.367Z,102781.16
2022-12-18T10:45:31.959Z,102791.09
2022-12-18T10:47:59.004Z,102789.78
2022-12-18T10:50:54.008Z,102783.78
2022-12-18T10:53:25.448Z,102775.44
2022-12-18T10:55:53.566Z,102776.97
2022-12-18T10:58:33.254Z,102775.94
2022-12-18T11:01:04.288Z,102780.59
2022-12-18T11:03:33.640Z,102774.81
2022-12-18T11:06:10.064Z,102763.81
2022-12-18T11:08:37.566Z,102751.78
2022-12-18T11:11:05.530Z,102748.56
2022-12-18T11:13:32.962Z,102741.25
2022-12-18T11:16:00.228Z,102741.69
2022-12-18T11:18:29.745Z,102748.44
2022-12-18T11:21:12.743Z,102742.56
2022-12-18T11:23:48.018Z,102732.22
2022-12-18T11:26:14.588Z,102734.75
2022-12-18T11:28:50.850Z,102737.34
2022-12-18T11:31:28.919Z,102739.41
2022-12-18T11:36:48.522Z,102733.31
2022-12-18T11:39:40.713Z,102724.81
2022-12-18T11:42:35.667Z,102715.59
2022-12-18T11:45:15.624Z,102704.06
2022-12-18T11:47:50.757Z,102692.06
2022-12-18T11:50:20.505Z,102690.34
2022-12-18T11:52:49.350Z,102685.56
2022-12-18T11:55:32.552Z,102690.81
2022-12-18T11:58:31.293Z,102686.34
2022-12-18T12:01:19.909Z,102687.13
2022-12-18T12:04:13.385Z,102680.78
2022-12-18T12:07:10.802Z,102681.22
2022-12-18T12:10:01.013Z,102681.78
2022-12-18T12:12:51.649Z,102677.03
2022-12-18T12:15:27.048Z,102663.97
2022-12-18T12:17:59.431Z,102672.00
2022-12-18T12:20:38.107Z,102674.56
2022-12-18T12:23:40.731Z,102676.84
2022-12-18T12:26:28.047Z,102668.19
2022-12-18T12:29:09.210Z,102653.22
2022-12-18T12:31:58.596Z,102666.81
2022-12-18T12:34:34.523Z,102655.25
2022-12-18T12:37:23.932Z,102649.38
2022-12-18T12:39:52.196Z,102638.75
2022-12-18T12:42:57.029Z,102622.94
2022-12-18T12:45:43.285Z,102625.50
2022-12-18T12:48:28.753Z,102634.75
2022-12-18T12:50:56.141Z,102634.03
2022-12-18T12:53:27.934Z,102618.41
2022-12-18T12:55:55.597Z,102611.13
2022-12-18T12:58:32.669Z,102621.41
2022-12-18T13:01:28.118Z,102621.78
2022-12-18T13:04:04.997Z,102625.94
2022-12-18T13:06:49.137Z,102627.50
2022-12-18T13:09:15.576Z,102626.44
2022-12-18T13:12:04.424Z,102618.75
2022-12-18T13:14:37.016Z,102620.09
2022-12-18T13:17:17.797Z,102604.88
2022-12-18T13:19:48.413Z,102592.34
2022-12-18T13:22:29.387Z,102595.66
2022-12-18T13:24:55.896Z,102591.34
2022-12-18T13:27:44.624Z,102590.28
2022-12-18T13:30:33.097Z,102576.13
2022-12-18T13:33:21.093Z,102584.66
2022-12-18T13:35:47.744Z,102581.09
2022-12-18T13:38:24.530Z,102582.78
2022-12-18T13:40:51.186Z,102578.28
2022-12-18T13:43:23.266Z,102590.44
2022-12-18T13:46:06.445Z,102582.81
2022-12-18T13:48:35.282Z,102576.28
2022-12-18T13:51:04.353Z,102554.44
2022-12-18T13:53:34.485Z,102554.50
2022-12-18T13:56:01.237Z,102541.19
2022-12-18T13:58:27.721Z,102537.13
2022-12-18T14:00:54.221Z,102543.44
2022-12-18T14:03:24.165Z,102542.66
2022-12-18T14:06:00.242Z,102537.66
2022-12-18T14:08:31.936Z,102528.69
2022-12-18T14:10:58.426Z,102533.41
2022-12-18T14:13:30.685Z,102525.66
2022-12-18T14:15:59.222Z,102537.66
2022-12-18T14:18:46.485Z,102524.47
2022-12-18T14:21:23.083Z,102519.81
2022-12-18T14:23:50.115Z,102518.13
2022-12-18T14:26:30.767Z,102516.88
2022-12-18T14:28:58.975Z,102510.72
2022-12-18T14:31:27.445Z,102520.78
2022-12-18T14:33:54.481Z,102518.56
2022-12-18T14:36:26.609Z,102513.59
2022-12-18T14:38:54.907Z,102512.56
2022-12-18T14:41:22.330Z,102503.13
2022-12-18T14:43:50.603Z,102501.88
2022-12-18T14:46:37.081Z,102493.00
2022-12-18T14:49:19.797Z,102491.47
2022-12-18T14:52:06.470Z,102491.00
2022-12-18T14:54:35.211Z,102497.81
2022-12-18T14:57:24.056Z,102482.63
2022-12-18T14:59:51.250Z,102467.69
2022-12-18T15:02:26.706Z,102466.97
2022-12-18T15:05:25.660Z,102468.78
2022-12-18T15:07:53.926Z,102460.13
2022-12-18T15:10:25.319Z,102469.00
2022-12-18T15:12:57.744Z,102469.22
2022-12-18T15:15:43.328Z,102470.88
2022-12-18T15:18:11.246Z,102468.03
2022-12-18T15:20:56.160Z,102450.56
2022-12-18T15:23:25.311Z,102453.41
2022-12-18T15:26:09.947Z,102437.25
2022-12-18T15:28:41.260Z,102441.38
2022-12-18T15:31:14.989Z,102435.09
2022-12-18T15:33:51.385Z,102434.53
2022-12-18T15:36:19.838Z,102436.31
2022-12-18T15:38:55.498Z,102433.69
2022-12-18T15:41:34.080Z,102422.38
2022-12-18T15:44:03.885Z,102420.50
2022-12-18T15:46:31.661Z,102416.16
2022-12-18T15:49:02.230Z,102403.38
2022-12-18T15:51:36.803Z,102418.28
2022-12-18T15:54:05.493Z,102419.13
2022-12-18T15:56:50.589Z,102401.59
2022-12-18T15:59:20.270Z,102414.47
2022-12-18T16:01:49.215Z,102405.59
2022-12-18T16:04:17.609Z,102413.00
2022-12-18T16:07:13.251Z,102420.22
2022-12-18T16:09:30.618Z,102412.50
2022-12-18T16:11:57.047Z,102404.34
2022-12-18T16:14:27.541Z,102404.00
2022-12-18T16:17:02.488Z,102400.09
2022-12-18T16:19:29.735Z,102381.88
2022-12-18T16:21:57.763Z,102376.97
2022-12-18T16:24:29.840Z,102372.38
2022-12-18T16:26:58.648Z,102372.50
2022-12-18T16:29:28.129Z,102351.50
2022-12-18T16:31:55.848Z,102355.63
2022-12-18T16:34:31.469Z,102349.69
2022-12-18T16:37:05.455Z,102344.25
2022-12-18T16:39:35.814Z,102346.47
2022-12-18T16:42:05.809Z,102347.75
2022-12-18T16:44:33.535Z,102339.63
2022-12-18T16:47:02.705Z,102344.50
2022-12-18T16:49:29.728Z,102344.25
2022-12-18T16:51:56.382Z,102340.69
2022-12-18T16:54:22.959Z,102329.06
2022-12-18T16:56:51.547Z,102335.84
2022-12-18T16:59:18.200Z,102327.44
2022-12-18T17:01:44.856Z,102316.34
2022-12-18T17:04:11.427Z,102318.75
2022-12-18T17:06:42.860Z,102327.25
2022-12-18T17:09:12.467Z,102323.56
2022-12-18T17:11:39.004Z,102323.56
2022-12-18T17:14:17.062Z,102313.88
2022-12-18T17:16:43.882Z,102317.13
2022-12-18T17:19:16.770Z,102326.19
2022-12-18T17:21:44.693Z,102325.50
2022-12-18T17:24:11.133Z,102314.06
2022-12-18T17:26:38.100Z,102321.88
2022-12-18T17:29:04.660Z,102310.00
2022-12-18T17:31:32.061Z,102302.06
2022-12-18T17:33:58.776Z,102297.94
2022-12-18T17:36:28.881Z,102296.63
2022-12-18T17:38:57.467Z,102294.72
2022-12-18T17:41:24.795Z,102296.59
2022-12-18T17:43:52.576Z,102279.66
2022-12-18T17:46:19.198Z,102269.38
2022-12-18T17:48:46.035Z,102262.00
2022-12-18T17:51:12.481Z,102254.34
2022-12-18T17:53:42.145Z,102251.13
2022-12-18T17:56:12.591Z,102242.19
2022-12-18T17:58:40.153Z,102244.44
2022-12-18T18:01:07.384Z,102232.78
2022-12-18T18:03:37.400Z,102227.44
2022-12-18T18:06:04.826Z,102223.44
2022-12-18T18:08:31.981Z,102229.91
2022-12-18T18:11:21.263Z,102220.47
2022-12-18T18:14:02.953Z,102217.91
2022-12-18T18:16:41.201Z,102228.81
2022-12-18T18:19:14.186Z,102222.03
2022-12-18T18:21:42.295Z,102219.97
2022-12-18T18:24:10.568Z,102206.53
2022-12-18T18:26:37.525Z,102187.69
2022-12-18T18:29:06.780Z,102196.03
2022-12-18T18:31:35.720Z,102187.69
2022-12-18T18:34:13.100Z,102193.00
2022-12-18T18:36:39.480Z,102186.75
2022-12-18T18:39:05.922Z,102187.69
2022-12-18T18:41:35.834Z,102195.34
2022-12-18T18:44:02.501Z,102186.63
2022-12-18T18:46:28.942Z,102165.59
2022-12-18T18:48:55.630Z,102163.66
2022-12-18T18:51:22.620Z,102156.38
2022-12-18T18:53:51.631Z,102159.94
2022-12-18T18:59:07.568Z,102146.56
2022-12-18T19:01:34.097Z,102145.34
2022-12-18T19:04:00.919Z,102140.28
2022-12-18T19:06:28.455Z,102127.91
2022-12-18T19:08:57.201Z,102135.50
2022-12-18T19:11:44.141Z,102138.13
2022-12-18T19:14:12.321Z,102129.44
2022-12-18T19:16:38.952Z,102151.56
2022-12-18T19:19:06.252Z,102146.06
2022-12-18T19:21:34.303Z,102146.81
2022-12-18T19:24:02.667Z,102148.59
2022-12-18T19:26:29.871Z,102155.63
2022-12-18T19:29:07.791Z,102161.56
2022-12-18T19:31:36.765Z,102138.13
2022-12-18T19:34:06.565Z,102129.25
2022-12-18T19:36:34.595Z,102127.50
2022-12-18T19:39:12.080Z,102130.97
2022-12-18T19:41:38.589Z,102139.72
2022-12-18T19:44:08.155Z,102159.91
2022-12-18T19:46:35.194Z,102172.91
2022-12-18T19:49:01.724Z,102178.59
2022-12-18T19:51:29.781Z,102165.25
2022-12-18T19:53:59.316Z,102179.59
2022-12-18T19:56:29.521Z,102165.25
2022-12-18T19:58:56.225Z,102171.63
2022-12-18T20:01:24.564Z,102159.97
2022-12-18T20:03:53.641Z,102145.25
2022-12-18T20:06:34.382Z,102156.31
2022-12-18T20:09:04.255Z,102165.78
2022-12-18T20:11:32.280Z,102153.31
2022-12-18T20:13:58.646Z,102165.28
2022-12-18T20:16:25.109Z,102155.81
2022-12-18T20:18:52.371Z,102153.28
2022-12-18T20:21:19.321Z,102168.84
2022-12-18T20:23:45.839Z,102151.56
2022-12-18T20:26:12.348Z,102141.75
2022-12-18T20:28:40.092Z,102159.97
2022-12-18T20:31:08.430Z,102152.13
2022-12-18T20:33:37.149Z,102155.94
2022-12-18T20:36:06.525Z,102161.50
2022-12-18T20:38:34.726Z,102153.84
2022-12-18T20:41:02.465Z,102145.66
2022-12-18T20:43:30.048Z,102153.38
2022-12-18T20:46:03.486Z,102161.75
2022-12-18T20:48:30.486Z,102158.38
2022-12-18T20:51:02.120Z,102153.66
2022-12-18T20:53:30.490Z,102151.78
2022-12-18T20:55:56.933Z,102127.91
2022-12-18T20:58:23.575Z,102135.66
2022-12-18T21:00:50.143Z,102131.88
2022-12-18T21:03:16.811Z,102132.34
2022-12-18T21:05:43.438Z,102134.38
2022-12-18T21:08:10.134Z,102137.44
2022-12-18T21:10:39.191Z,102134.69
2022-12-18T21:13:06.812Z,102140.25
2022-12-18T21:15:35.897Z,102137.13
2022-12-18T21:18:02.326Z,102115.44
2022-12-18T21:20:28.915Z,102116.47
2022-12-18T21:22:55.583Z,102103.78
2022-12-18T21:25:25.709Z,102111.75
2022-12-18T21:27:52.135Z,102101.06
2022-12-18T21:30:18.714Z,102100.47
2022-12-18T21:32:45.109Z,102093.31
2022-12-18T21:35:11.649Z,102100.19
2022-12-18T21:37:38.226Z,102098.22
2022-12-18T21:40:06.009Z,102091.72
2022-12-18T21:42:51.045Z,102087.25
2022-12-18T21:45:17.469Z,102087.72
2022-12-18T21:47:43.893Z,102081.53
2022-12-18T21:50:10.281Z,102089.50
2022-12-18T21:52:36.946Z,102082.41
2022-12-18T21:55:09.079Z,102081.81
2022-12-18T21:57:37.375Z,102071.09
2022-12-18T22:00:05.067Z,102075.63
2022-12-18T22:02:32.575Z,102061.53
2022-12-18T22:04:59.213Z,102073.78
2022-12-18T22:07:26.591Z,102064.84
2022-12-18T22:09:53.005Z,102065.03
2022-12-18T22:12:35.782Z,102066.06
2022-12-18T22:15:10.742Z,102070.09
2022-12-18T22:17:38.916Z,102065.72
2022-12-18T22:20:05.716Z,102054.03
2022-12-18T22:22:32.109Z,102056.50
2022-12-18T22:24:59.519Z,102061.13
2022-12-18T22:27:25.915Z,102057.13
2022-12-18T22:30:04.459Z,102058.38
2022-12-18T22:32:32.332Z,102046.34
2022-12-18T22:35:05.269Z,102046.00
2022-12-18T22:37:33.796Z,102038.28
2022-12-18T22:40:03.262Z,102029.16
2022-12-18T22:42:31.323Z,102028.13
2022-12-18T22:44:57.737Z,102028.91
2022-12-18T22:47:29.260Z,102036.19
2022-12-18T22:49:56.349Z,102042.22
2022-12-18T22:52:23.437Z,102037.28
2022-12-18T22:54:51.391Z,102032.13
2022-12-18T22:57:20.046Z,102025.34
2022-12-18T22:59:46.430Z,102030.16
2022-12-18T23:02:12.929Z,102028.19
2022-12-18T23:04:39.757Z,102030.94
2022-12-18T23:07:06.672Z,102031.28
2022-12-18T23:09:33.665Z,102025.09
2022-12-18T23:12:00.596Z,102027.56
2022-12-18T23:14:28.199Z,102024.78
2022-12-18T23:16:54.831Z,102020.34
2022-12-18T23:19:22.698Z,102007.25
2022-12-18T23:21:50.516Z,101991.78
2022-12-18T23:24:16.934Z,101978.22
2022-12-18T23:26:43.395Z,101984.88
2022-12-18T23:29:09.956Z,101978.38
2022-12-18T23:31:38.674Z,101976.09
2022-12-18T23:34:05.831Z,101963.41
2022-12-18T23:36:37.641Z,101971.75
2022-12-18T23:39:29.124Z,101961.25
2022-12-18T23:41:58.128Z,101959.72
2022-12-18T23:44:24.745Z,101960.66
2022-12-18T23:46:51.258Z,101953.69
2022-12-18T23:49:17.688Z,101943.19
2022-12-18T23:51:44.147Z,101933.44
2022-12-18T23:54:10.607Z,101946.41
2022-12-18T23:56:37.129Z,101940.38
2022-12-18T23:59:03.686Z,101940.53
